Bodega Marine Reserve, California Weather observations

Data are for 10 minute period ending at time listed.
 Day   Time   Solar   Ave.   Ave.  Ave.  Vector  Max.   Baro.   Total    
  of    of     Rad.   Air    Rel.  Wind   Wind   Wind  Press.  Precip.   
Year   Day            Temp.  Hum.  Speed  Dir.   Gust                    
2014   (PST)  Kw/m2    F      %     mph   deg.    mph    mb.     in.     
-------------------------------------------------------------------------
 204    5:10   0.00   62.0    92    3.1    95     4.9   1016.6    0.00 
 204    5:20   0.01   62.0    92    3.1   112     5.6   1016.6    0.00 
 204    5:30   0.01   62.1    92    2.5    97     3.9   1016.6    0.00 
 204    5:40   0.02   62.2    92    4.4    98     6.0   1016.6    0.00 
 204    5:50   0.03   62.3    91    4.7    87     6.1   1016.6    0.00 
 204    6:00   0.04   62.4    91    4.3    89     5.8   1016.6    0.00 
 204    6:10   0.04   62.6    90    2.8   118     4.7   1016.6    0.00 
 204    6:20   0.04   62.8    90    3.3   122     4.8   1016.9    0.00 
 204    6:30   0.05   63.0    90    6.1   138     8.4   1016.9    0.00 
 204    6:40   0.06   63.0    91    6.7   139     9.4   1017.3    0.00 
 204    6:50   0.07   62.9    92    7.7   143     9.3   1017.3    0.00 
 204    7:00   0.07   62.7    94    6.2   138     8.3   1017.3    0.00 
 204    7:10   0.08   62.6    94    5.2   135     7.2   1017.3    0.00 
 204    7:20   0.08   62.5    95    4.2   128     5.8   1017.6    0.00 
 204    7:30   0.07   62.5    95    3.9   128     5.2   1017.6    0.00 
 204    7:40   0.10   62.8    96    2.7   100     4.0   1018.0    0.00 
 204    7:50   0.19   63.3    96    3.5    97     5.0   1018.0    0.00 
 204    8:00   0.21   64.0    95    2.4   118     4.3   1018.0    0.00 
 204    8:10   0.23   64.1    95    3.1   131     4.4   1018.0    0.00 
 204    8:20   0.37   64.5    95    3.8   134     5.0   1018.0    0.00 
 204    8:30   0.43   64.8    94    4.3   130     5.8   1018.0    0.00 
 204    8:40   0.49   65.6    91    4.0   129     5.8   1018.0    0.00 
 204    8:50   0.73   66.4    88    4.9   133     6.0   1018.3    0.00 
 204    9:00   0.63   67.6    84    4.8   127     6.6   1018.3    0.00 
 204    9:10   0.54   68.1    81    6.1   133     8.6   1018.3    0.00 
 204    9:20   0.55   67.9    82    6.6   133     8.3   1018.6    0.00 
 204    9:30   0.34   67.9    81    6.1   141     9.5   1018.6    0.00 
 204    9:40   0.65   69.0    79    6.3   143     9.6   1018.6    0.00 
 204    9:50   0.43   68.5    79    6.8   176     9.6   1018.6    0.00 
 204   10:00   0.78   68.9    80    7.5   203    11.0   1018.6    0.00 
 204   10:10   0.86   70.0    77    7.5   224    10.4   1018.6    0.00 
 204   10:20   0.80   68.8    80    8.6   256    10.8   1019.0    0.00 
 204   10:30   0.72   68.9    79    8.5   267    11.8   1019.0    0.00 
 204   10:40   0.75   67.8    80    9.5   277    11.7   1019.0    0.00 
 204   10:50   0.78   67.7    80    8.5   273    11.7   1019.0    0.00 
 204   11:00   0.85   67.8    80    9.5   279    11.9   1018.6    0.00 
 204   11:10   0.86   67.6    80    9.8   282    12.3   1018.6    0.00 
 204   11:20   0.87   67.9    79    9.6   285    12.9   1018.6    0.00 
 204   11:30   0.87   68.5    78   10.2   281    13.2   1018.6    0.00 
 204   11:40   0.89   68.8    76   10.4   280    13.2   1018.6    0.01 
 204   11:50   0.88   67.8    79   10.8   276    14.2   1018.3    0.00 
 204   12:00   0.88   68.2    78   10.6   281    13.3   1018.3    0.00 
 204   12:10   0.90   67.6    79   11.3   279    13.3   1018.3    0.00 
 204   12:20   0.91   67.9    78    9.8   280    12.9   1018.3    0.00 
 204   12:30   0.93   68.8    76    9.4   260    13.1   1018.6    0.00 
 204   12:40   0.89   68.3    77   11.2   265    13.7   1018.3    0.00 
 204   12:50   0.77   67.5    79   13.0   277    16.0   1018.3    0.00 
 204   13:00   0.82   67.4    79   12.6   273    15.9   1018.3    0.00 
 204   13:10   0.76   67.7    79   11.6   280    15.0   1018.3    0.00 
 204   13:20   0.64   66.9    80   12.0   284    15.5   1018.3    0.00 
 204   13:30   0.64   66.9    80   11.6   285    15.9   1018.3    0.00 
 204   13:40   0.61   67.7    79   12.4   284    16.7   1018.3    0.00 
 204   13:50   0.69   67.6    79   13.1   286    17.8   1018.3    0.00 
 204   14:00   0.60   68.1    78   14.1   288    18.0   1018.0    0.00 
 204   14:10   0.80   68.2    78   14.3   286    18.7   1017.6    0.00 
 204   14:20   0.78   68.7    77   13.4   286    17.2   1017.6    0.00 
 204   14:30   0.36   68.0    79   13.2   286    17.5   1017.6    0.00 
 204   14:40   0.08   68.6    78   12.5   280    16.5   1017.6    0.00 
 204   14:50   0.07   68.9    76   12.0   294    19.0   1017.6    0.00 
 204   15:00   0.27   68.6    77   13.2   289    18.3   1017.3    0.00 
 204   15:10   0.38   68.8    76   16.0   293    23.3   1017.3    0.00 
 204   15:20   0.44   67.5    78   17.6   298    23.1   1017.3    0.00 
 204   15:30   0.43   66.1    82   17.6   295    23.2   1016.9    0.00 
 204   15:40   0.52   65.8    81   17.1   292    22.1   1016.9    0.00 
 204   15:50   0.58   66.8    78   16.7   288    23.6   1016.6    0.00 
 204   16:00   0.57   66.4    79   17.2   288    23.0   1016.6    0.00 
 204   16:10   0.46   66.7    77   17.8   290    23.8   1016.6    0.00 
 204   16:20   0.46   66.4    77   18.0   292    23.7   1016.3    0.00 
 204   16:30   0.07   66.1    78   18.2   294    23.9   1016.3    0.00 
 204   16:40   0.42   65.7    78   19.2   296    25.7   1015.9    0.00 
 204   16:50   0.43   65.8    78   18.8   292    26.0   1015.9    0.00 
 204   17:00   0.40   65.7    77   17.8   294    24.4   1015.6    0.00 
 204   17:10   0.37   65.8    76   18.5   295    26.3   1015.6    0.00 
 204   17:20   0.34   66.0    75   17.6   294    22.9   1015.6    0.00 
 204   17:30   0.31   66.4    73   17.5   298    23.7   1015.6    0.00 
 204   17:40   0.28   65.9    74   19.2   302    25.8   1015.2    0.00 
 204   17:50   0.25   65.6    75   18.4   305    25.9   1015.2    0.00 
 204   18:00   0.22   65.2    76   19.1   308    27.5   1015.2    0.00 
 204   18:10   0.19   64.8    77   20.2   307    26.7   1014.9    0.00 
 204   18:20   0.16   64.2    78   20.8   306    28.1   1014.9    0.00 
 204   18:30   0.13   63.6    80   21.2   306    29.4   1014.9    0.00 
 204   18:40   0.11   63.2    81   18.9   308    25.4   1014.9    0.00 
 204   18:50   0.09   63.0    82   18.6   310    27.7   1014.9    0.00 
 204   19:00   0.06   62.7    83   19.2   314    26.0   1014.6    0.00 
 204   19:10   0.04   62.5    84   17.3   322    24.7   1014.6    0.00 
 204   19:20   0.02   62.2    86   17.2   323    23.3   1014.6    0.00 
 204   19:30   0.01   61.9    87   19.0   320    24.2   1014.6    0.00 
 204   19:40   0.00   61.7    88   16.4   326    22.9   1014.6    0.00 
 204   19:50   0.00   61.6    89   14.4   324    18.9   1014.6    0.00 
 204   20:00   0.00   61.4    89   16.2   326    22.3   1014.2    0.00 
 204   20:10   0.00   61.4    90   15.9   326    21.5   1014.2    0.00 
 204   20:20   0.00   61.5    90   16.1   324    20.7   1014.2    0.00 
 204   20:30   0.00   61.7    89   18.6   318    23.1   1014.2    0.00 
 204   20:40   0.00   61.9    88   16.5   320    21.5   1014.2    0.00 
 204   20:50   0.00   61.8    89   17.0   322    22.0   1014.2    0.00 
 204   21:00   0.00   61.8    89   18.0   320    23.5   1014.2    0.00 
 204   21:10   0.00   61.7    89   18.3   317    23.8   1014.2    0.00 
 204   21:20   0.00   61.2    90   16.4   319    21.0   1014.2    0.00 
 204   21:30   0.00   61.0    90   16.5   317    23.0   1014.2    0.00 
 204   21:40   0.00   60.9    91   15.3   322    21.0   1014.2    0.00 
 204   21:50   0.00   60.7    91   15.0   323    21.7   1014.2    0.00 
 204   22:00   0.00   60.6    92   15.5   324    20.2   1014.2    0.00 
 204   22:10   0.00   60.3    92   15.5   323    21.4   1014.2    0.00 
 204   22:20   0.00   60.2    92   17.0   319    22.4   1014.2    0.00 
 204   22:30   0.00   60.2    92   17.0   320    23.8   1014.2    0.00 
 204   22:40   0.00   60.2    92   15.4   325    21.6   1014.2    0.00 
 204   22:50   0.00   60.1    92   15.3   324    20.5   1014.6    0.00 
 204   23:00   0.00   60.0    92   15.1   324    20.7   1014.6    0.00 
 204   23:10   0.00   59.9    93   16.0   324    22.1   1014.6    0.00 
 204   23:20   0.00   59.8    93   16.3   322    22.7   1014.6    0.00 
 204   23:30   0.00   59.7    93   17.4   317    24.1   1014.6    0.00 
 204   23:40   0.00   59.6    93   15.4   319    21.8   1014.6    0.00 
 204   23:50   0.00   59.6    93   16.4   318    22.4   1014.6    0.00 
 205    0:00   0.00   59.5    93   15.1   320    21.0   1014.6    0.00 
 205    0:10   0.00   59.4    94   16.2   316    21.5   1014.2    0.00 
 205    0:20   0.00   59.2    94   16.8   313    21.9   1014.2    0.00 
 205    0:30   0.00   59.2    94   18.3   310    23.5   1014.2    0.00 
 205    0:40   0.00   59.1    94   18.1   312    22.9   1014.2    0.00 
 205    0:50   0.00   59.0    94   18.6   310    23.4   1013.9    0.00 
 205    1:00   0.00   58.7    94   18.8   310    23.6   1013.9    0.00 
 205    1:10   0.00   58.4    95   16.0   314    24.0   1013.9    0.00 
 205    1:20   0.00   58.2    95   13.4   314    19.9   1013.9    0.00 
 205    1:30   0.00   57.8    96   14.8   314    19.7   1013.9    0.00 
 205    1:40   0.00   57.8    96   14.3   315    19.6   1013.9    0.00 
 205    1:50   0.00   57.6    96   14.1   310    19.4   1013.9    0.00 
 205    2:00   0.00   57.3    96   14.3   308    20.9   1013.5    0.00 
 205    2:10   0.00   57.2    97   14.7   308    21.0   1013.5    0.00 
 205    2:20   0.00   56.9    97   16.1   312    20.6   1013.5    0.00 
 205    2:30   0.00   56.8    97   13.8   314    18.5   1013.2    0.00 
 205    2:40   0.01   56.7    97   13.1   320    19.7   1013.2    0.00 
 205    2:50   0.01   56.5    97   12.1   317    16.4   1013.2    0.00 
 205    3:00   0.01   56.4    97   10.6   317    16.0   1013.2    0.00 
 205    3:10   0.01   56.4    97   11.0   307    14.0   1013.2    0.00 
 205    3:20   0.01   56.4    97   11.8   309    15.6   1013.2    0.00 
 205    3:30   0.01   56.4    98   10.6   311    14.9   1013.2    0.00 
 205    3:40   0.01   56.8    98    7.8   316    12.6   1013.2    0.00 
 205    3:50   0.01   56.9    97    7.4   307    11.4   1013.2    0.00 
 205    4:00   0.01   56.5    98    6.4   321    10.8   1012.9    0.00 
 205    4:10   0.01   56.3    98    4.9   328     7.7   1012.9    0.00 
 205    4:20   0.01   56.0    98    4.6   323     6.0   1012.9    0.00 
 205    4:30   0.01   55.9    98    3.2   325     6.2   1012.5    0.00 
 205    4:40   0.00   55.8    97    0.9    28     2.0   1012.9    0.00 
 205    4:50   0.00   55.3    98    1.5   137     3.1   1012.9    0.00 
 205    5:00   0.01   55.3    98    4.3   133     5.3   1012.9    0.00 

Return to Bodega Marine Reserve graphs page.


Western Regional Climate Center,wrcc@dri.edu